Time,TemperatureF,DewpointF,PressureIn,WindDirection,WindDirectionDegrees,WindSpeedMPH,WindSpeedGustMPH,Humidity,HourlyPrecipIn,Conditions,Clouds,dailyrainin,SolarRadiationWatts/m^2,SoftwareType,DateUTC
2013-06-20 00:00:00,52.0,49.0,-100.00,SE,135,0.0,-999.0,90,-99.99,,,-99.99,0.000000,,2013-06-20 04:00:00,
2013-06-20 00:44:00,52.0,49.0,-100.00,SE,135,0.0,-999.0,90,-99.99,,,-99.99,0.000000,,2013-06-20 04:44:00,
2013-06-20 00:54:00,52.0,49.0,-100.00,SE,135,0.0,-999.0,90,-99.99,,,-99.99,0.000000,,2013-06-20 04:54:00,
2013-06-20 01:00:00,50.0,48.0,-100.00,WNW,292,0.0,-999.0,91,-99.99,,,-99.99,0.000000,,2013-06-20 05:00:00,
2013-06-20 01:44:00,50.0,48.0,-100.00,WNW,292,0.0,-999.0,91,-99.99,,,-99.99,0.000000,,2013-06-20 05:44:00,
2013-06-20 01:53:00,50.0,48.0,-100.00,WNW,292,0.0,-999.0,91,-99.99,,,-99.99,0.000000,,2013-06-20 05:53:00,
2013-06-20 02:00:00,51.0,48.0,-100.00,NE,45,1.0,-999.0,88,-99.99,,,-99.99,0.000000,,2013-06-20 06:00:00,
2013-06-20 02:43:00,51.0,48.0,-100.00,NE,45,1.0,-999.0,88,-99.99,,,-99.99,0.000000,,2013-06-20 06:43:00,
2013-06-20 02:53:00,51.0,48.0,-100.00,NE,45,1.0,-999.0,88,-99.99,,,-99.99,0.000000,,2013-06-20 06:53:00,
2013-06-20 03:00:00,50.0,47.0,-100.00,NE,45,1.0,-999.0,89,-99.99,,,-99.99,0.000000,,2013-06-20 07:00:00,
2013-06-20 03:44:00,50.0,47.0,-100.00,NE,45,1.0,-999.0,89,-99.99,,,-99.99,0.000000,,2013-06-20 07:44:00,
2013-06-20 03:53:00,50.0,47.0,-100.00,NE,45,1.0,-999.0,89,-99.99,,,-99.99,0.000000,,2013-06-20 07:53:00,
2013-06-20 04:00:00,49.0,47.0,-100.00,East,90,1.0,-999.0,90,-99.99,,,-99.99,0.000000,,2013-06-20 08:00:00,
2013-06-20 04:43:00,49.0,47.0,-100.00,East,90,1.0,-999.0,90,-99.99,,,-99.99,0.000000,,2013-06-20 08:43:00,
2013-06-20 04:53:00,49.0,47.0,-100.00,East,90,1.0,-999.0,90,-99.99,,,-99.99,0.000000,,2013-06-20 08:53:00,
2013-06-20 05:00:00,50.0,47.0,-100.00,SSE,157,1.0,-999.0,87,-99.99,,,-99.99,0.000000,,2013-06-20 09:00:00,
2013-06-20 05:43:00,50.0,47.0,-100.00,SSE,157,1.0,-999.0,87,-99.99,,,-99.99,0.000000,,2013-06-20 09:43:00,
2013-06-20 05:52:00,50.0,47.0,-100.00,SSE,157,1.0,-999.0,87,-99.99,,,-99.99,0.000000,,2013-06-20 09:52:00,
2013-06-20 06:00:00,53.0,48.0,-100.00,SW,225,2.0,-999.0,81,-99.99,,,-99.99,1.160000,,2013-06-20 10:00:00,
2013-06-20 06:44:00,53.0,48.0,-100.00,SW,225,2.0,-999.0,81,-99.99,,,-99.99,1.160000,,2013-06-20 10:44:00,
2013-06-20 06:53:00,53.0,48.0,-100.00,SW,225,2.0,-999.0,81,-99.99,,,-99.99,1.160000,,2013-06-20 10:53:00,
2013-06-20 07:00:00,55.0,48.0,-100.00,SW,225,2.0,-999.0,77,-99.99,,,-99.99,30.160000,,2013-06-20 11:00:00,
2013-06-20 07:43:00,55.0,48.0,-100.00,SW,225,2.0,-999.0,77,-99.99,,,-99.99,30.160000,,2013-06-20 11:43:00,
2013-06-20 07:53:00,55.0,48.0,-100.00,SW,225,2.0,-999.0,77,-99.99,,,-99.99,30.160000,,2013-06-20 11:53:00,
2013-06-20 08:00:00,58.0,50.0,-100.00,South,180,2.0,-999.0,74,-99.99,,,-99.99,172.839996,,2013-06-20 12:00:00,
2013-06-20 08:43:00,58.0,50.0,-100.00,South,180,2.0,-999.0,74,-99.99,,,-99.99,172.839996,,2013-06-20 12:43:00,
2013-06-20 08:53:00,58.0,50.0,-100.00,South,180,2.0,-999.0,74,-99.99,,,-99.99,172.839996,,2013-06-20 12:53:00,
2013-06-20 09:00:00,62.0,52.0,-100.00,SSW,202,3.0,-999.0,68,-99.99,,,-99.99,281.880005,,2013-06-20 13:00:00,
2013-06-20 09:42:00,62.0,52.0,-100.00,SSW,202,3.0,-999.0,68,-99.99,,,-99.99,281.880005,,2013-06-20 13:42:00,
2013-06-20 09:53:00,62.0,52.0,-100.00,SSW,202,3.0,-999.0,68,-99.99,,,-99.99,281.880005,,2013-06-20 13:53:00,
2013-06-20 10:00:00,67.0,52.0,-100.00,WSW,247,3.0,-999.0,58,-99.99,,,-99.99,525.479980,,2013-06-20 14:00:00,
2013-06-20 10:42:00,67.0,52.0,-100.00,WSW,247,3.0,-999.0,58,-99.99,,,-99.99,525.479980,,2013-06-20 14:42:00,
2013-06-20 10:53:00,67.0,52.0,-100.00,WSW,247,3.0,-999.0,58,-99.99,,,-99.99,525.479980,,2013-06-20 14:53:00,
2013-06-20 11:00:00,71.0,49.0,-100.00,SW,225,3.0,-999.0,45,-99.99,,,-99.99,677.440002,,2013-06-20 15:00:00,
2013-06-20 11:43:00,71.0,49.0,-100.00,SW,225,3.0,-999.0,45,-99.99,,,-99.99,677.440002,,2013-06-20 15:43:00,
2013-06-20 11:53:00,71.0,49.0,-100.00,SW,225,3.0,-999.0,45,-99.99,,,-99.99,677.440002,,2013-06-20 15:53:00,
2013-06-20 12:00:00,75.0,46.0,-100.00,SSW,202,2.0,-999.0,35,-99.99,,,-99.99,798.080017,,2013-06-20 16:00:00,
2013-06-20 12:43:00,75.0,46.0,-100.00,SSW,202,2.0,-999.0,35,-99.99,,,-99.99,798.080017,,2013-06-20 16:43:00,
2013-06-20 12:52:00,75.0,46.0,-100.00,SSW,202,2.0,-999.0,35,-99.99,,,-99.99,798.080017,,2013-06-20 16:52:00,
2013-06-20 13:00:00,77.0,46.0,-100.00,SSW,202,3.0,-999.0,33,-99.99,,,-99.99,876.960022,,2013-06-20 17:00:00,
2013-06-20 13:43:00,77.0,46.0,-100.00,SSW,202,3.0,-999.0,33,-99.99,,,-99.99,876.960022,,2013-06-20 17:43:00,
2013-06-20 13:53:00,77.0,46.0,-100.00,SSW,202,3.0,-999.0,33,-99.99,,,-99.99,876.960022,,2013-06-20 17:53:00,
2013-06-20 14:00:00,77.0,46.0,-100.00,SW,225,4.0,-999.0,32,-99.99,,,-99.99,910.599976,,2013-06-20 18:00:00,
2013-06-20 14:43:00,77.0,46.0,-100.00,SW,225,4.0,-999.0,32,-99.99,,,-99.99,910.599976,,2013-06-20 18:43:00,
2013-06-20 14:53:00,77.0,46.0,-100.00,SW,225,4.0,-999.0,32,-99.99,,,-99.99,910.599976,,2013-06-20 18:53:00,
2013-06-20 15:00:00,79.0,46.0,-100.00,West,270,3.0,-999.0,32,-99.99,,,-99.99,902.479980,,2013-06-20 19:00:00,
2013-06-20 15:44:00,79.0,46.0,-100.00,West,270,3.0,-999.0,32,-99.99,,,-99.99,902.479980,,2013-06-20 19:44:00,
2013-06-20 15:52:00,79.0,46.0,-100.00,West,270,3.0,-999.0,32,-99.99,,,-99.99,902.479980,,2013-06-20 19:52:00,
2013-06-20 16:00:00,80.0,47.0,-100.00,SSE,157,2.0,-999.0,31,-99.99,,,-99.99,835.200012,,2013-06-20 20:00:00,
2013-06-20 16:53:00,80.0,47.0,-100.00,SSE,157,2.0,-999.0,31,-99.99,,,-99.99,835.200012,,2013-06-20 20:53:00,